createdAt,value
2022-11-27T00:02:21.071Z,101883.28
2022-11-27T00:06:25.332Z,101878.09
2022-11-27T00:10:27.061Z,101878.13
2022-11-27T00:14:29.156Z,101871.19
2022-11-27T00:18:30.885Z,101866.00
2022-11-27T00:22:33.086Z,101875.47
2022-11-27T00:26:38.168Z,101867.66
2022-11-27T00:30:40.413Z,101856.44
2022-11-27T00:34:42.442Z,101855.53
2022-11-27T00:38:44.514Z,101850.38
2022-11-27T00:42:46.151Z,101859.84
2022-11-27T00:46:48.231Z,101861.63
2022-11-27T00:50:49.882Z,101862.50
2022-11-27T00:54:51.818Z,101857.25
2022-11-27T00:58:54.389Z,101857.25
2022-11-27T01:02:56.357Z,101868.50
2022-11-27T01:06:58.119Z,101867.69
2022-11-27T01:11:01.148Z,101865.06
2022-11-27T01:15:02.918Z,101858.19
2022-11-27T01:19:05.521Z,101862.50
2022-11-27T01:23:07.746Z,101858.19
2022-11-27T01:27:09.667Z,101861.69
2022-11-27T01:31:13.410Z,101862.50
2022-11-27T01:35:15.422Z,101859.94
2022-11-27T01:39:19.668Z,101860.75
2022-11-27T01:43:37.632Z,101872.00
2022-11-27T01:47:46.992Z,101874.59
2022-11-27T01:51:51.421Z,101877.16
2022-11-27T01:55:58.546Z,101871.06
2022-11-27T02:00:01.502Z,101862.44
2022-11-27T02:04:04.039Z,101869.38
2022-11-27T02:08:09.712Z,101864.22
2022-11-27T02:12:25.144Z,101878.00
2022-11-27T02:16:49.239Z,101874.56
2022-11-27T02:21:05.987Z,101866.84
2022-11-27T02:25:28.570Z,101878.03
2022-11-27T02:29:35.307Z,101884.06
2022-11-27T02:33:43.545Z,101886.66
2022-11-27T02:37:49.353Z,101895.25
2022-11-27T02:41:57.215Z,101896.97
2022-11-27T02:46:01.024Z,101897.84
2022-11-27T02:50:05.188Z,101897.88
2022-11-27T02:54:12.220Z,101896.16
2022-11-27T02:58:17.974Z,101900.47
2022-11-27T03:02:25.996Z,101897.91
2022-11-27T03:06:35.013Z,101894.44
2022-11-27T03:10:47.870Z,101892.75
2022-11-27T03:14:49.668Z,101885.00
2022-11-27T03:19:10.561Z,101886.69
2022-11-27T03:23:12.261Z,101878.94
2022-11-27T03:27:22.828Z,101887.56
2022-11-27T03:31:25.065Z,101884.97
2022-11-27T03:35:27.508Z,101884.06
2022-11-27T03:39:30.676Z,101892.72
2022-11-27T03:43:41.984Z,101889.25
2022-11-27T03:48:12.594Z,101899.59
2022-11-27T03:52:33.003Z,101900.53
2022-11-27T03:56:57.984Z,101906.53
2022-11-27T04:01:01.146Z,101894.44
2022-11-27T04:05:02.923Z,101899.63
2022-11-27T04:09:05.102Z,101903.97
2022-11-27T04:13:06.763Z,101903.09
2022-11-27T04:17:09.242Z,101900.50
2022-11-27T04:21:12.688Z,101903.13
2022-11-27T04:25:14.567Z,101904.84
2022-11-27T04:29:16.343Z,101905.69
2022-11-27T04:33:18.512Z,101911.75
2022-11-27T04:37:20.179Z,101904.84
2022-11-27T04:41:22.258Z,101906.56
2022-11-27T04:45:23.886Z,101909.19
2022-11-27T04:49:25.816Z,101894.50
2022-11-27T04:53:27.595Z,101896.22
2022-11-27T04:57:29.498Z,101897.94
2022-11-27T05:01:31.322Z,101898.84
2022-11-27T05:05:33.261Z,101899.66
2022-11-27T05:09:35.002Z,101895.34
2022-11-27T05:13:37.452Z,101893.66
2022-11-27T05:17:39.149Z,101897.06
2022-11-27T05:21:41.661Z,101894.50
2022-11-27T05:25:43.278Z,101892.75
2022-11-27T05:29:45.310Z,101890.19
2022-11-27T05:33:46.964Z,101890.22
2022-11-27T05:37:48.847Z,101885.00
2022-11-27T05:41:50.688Z,101887.63
2022-11-27T05:45:52.546Z,101890.19
2022-11-27T05:49:54.211Z,101883.31
2022-11-27T05:53:56.335Z,101881.59
2022-11-27T05:57:57.965Z,101891.94
2022-11-27T06:01:59.895Z,101893.69
2022-11-27T06:06:15.045Z,101889.38
2022-11-27T06:10:17.021Z,101887.66
2022-11-27T06:14:18.722Z,101877.28
2022-11-27T06:18:20.722Z,101877.28
2022-11-27T06:22:22.359Z,101872.09
2022-11-27T06:26:30.498Z,101864.34
2022-11-27T06:30:32.196Z,101873.84
2022-11-27T06:34:34.158Z,101880.75
2022-11-27T06:38:37.367Z,101893.69
2022-11-27T06:42:40.407Z,101893.72
2022-11-27T06:46:42.070Z,101900.59
2022-11-27T06:50:44.057Z,101893.69
2022-11-27T06:54:45.737Z,101896.31
2022-11-27T06:58:51.676Z,101896.28
2022-11-27T07:02:55.144Z,101898.84
2022-11-27T07:06:57.097Z,101895.38
2022-11-27T07:11:16.568Z,101884.16
2022-11-27T07:15:18.494Z,101880.75
2022-11-27T07:19:20.534Z,101885.03
2022-11-27T07:23:22.655Z,101873.88
2022-11-27T07:27:24.702Z,101873.84
2022-11-27T07:31:30.150Z,101879.00
2022-11-27T07:35:31.950Z,101881.63
2022-11-27T07:40:00.213Z,101877.31
2022-11-27T07:43:55.930Z,101885.94
2022-11-27T07:47:57.600Z,101878.19
2022-11-27T07:51:59.466Z,101877.31
2022-11-27T07:56:01.198Z,101881.66
2022-11-27T08:00:04.264Z,101878.22
2022-11-27T08:04:06.085Z,101874.72
2022-11-27T08:08:08.034Z,101883.38
2022-11-27T08:12:09.660Z,101882.53
2022-11-27T08:16:11.790Z,101883.41
2022-11-27T08:20:13.557Z,101879.09
2022-11-27T08:24:15.588Z,101880.81
2022-11-27T08:28:18.264Z,101871.31
2022-11-27T08:32:20.214Z,101876.50
2022-11-27T08:36:22.771Z,101867.00
2022-11-27T08:40:24.804Z,101869.59
2022-11-27T08:44:26.682Z,101873.91
2022-11-27T08:48:28.552Z,101879.09
2022-11-27T08:52:30.203Z,101885.13
2022-11-27T08:56:32.189Z,101885.97
2022-11-27T09:00:35.139Z,101893.75
2022-11-27T09:04:37.056Z,101895.50
2022-11-27T09:08:40.369Z,101905.00
2022-11-27T09:12:44.501Z,101900.69
2022-11-27T09:16:46.279Z,101892.03
2022-11-27T09:20:56.376Z,101888.56
2022-11-27T09:24:58.027Z,101886.84
2022-11-27T09:29:00.027Z,101881.66
2022-11-27T09:33:02.218Z,101877.31
2022-11-27T09:37:04.892Z,101872.97
2022-11-27T09:41:33.742Z,101867.78
2022-11-27T09:45:40.073Z,101877.31
2022-11-27T09:49:47.910Z,101867.72
2022-11-27T09:53:56.172Z,101861.72
2022-11-27T09:58:19.250Z,101864.28
2022-11-27T10:02:32.868Z,101859.06
2022-11-27T10:06:49.488Z,101852.09
2022-11-27T10:11:06.931Z,101859.78
2022-11-27T10:15:36.549Z,101859.75
2022-11-27T10:19:49.126Z,101855.44
2022-11-27T10:24:07.830Z,101856.28
2022-11-27T10:28:36.568Z,101854.56
2022-11-27T10:32:55.730Z,101861.44
2022-11-27T10:37:02.468Z,101853.66
2022-11-27T10:41:18.577Z,101853.56
2022-11-27T10:45:57.349Z,101836.22
2022-11-27T10:49:59.497Z,101844.03
2022-11-27T10:54:03.763Z,101845.63
2022-11-27T10:58:18.302Z,101842.25
2022-11-27T11:02:32.278Z,101839.63
2022-11-27T11:06:40.123Z,101852.50
2022-11-27T11:10:50.474Z,101846.44
2022-11-27T11:14:54.471Z,101842.22
2022-11-27T11:18:57.691Z,101840.41
2022-11-27T11:22:59.479Z,101838.59
2022-11-27T11:27:12.092Z,101834.28
2022-11-27T11:31:19.460Z,101830.75
2022-11-27T11:35:32.205Z,101831.66
2022-11-27T11:39:45.303Z,101826.38
2022-11-27T11:43:59.144Z,101831.66
2022-11-27T11:48:22.174Z,101828.97
2022-11-27T11:52:46.983Z,101835.84
2022-11-27T11:56:52.565Z,101826.41
2022-11-27T12:01:26.110Z,101826.31
2022-11-27T12:05:51.198Z,101832.38
2022-11-27T12:10:01.557Z,101835.84
2022-11-27T12:14:27.726Z,101831.59
2022-11-27T12:18:57.959Z,101822.00
2022-11-27T12:23:11.489Z,101814.34
2022-11-27T12:27:42.551Z,101808.19
2022-11-27T12:32:19.308Z,101809.00
2022-11-27T12:36:27.046Z,101810.75
2022-11-27T12:40:57.018Z,101807.25
2022-11-27T12:45:01.479Z,101804.59
2022-11-27T12:49:20.977Z,101807.19
2022-11-27T12:53:36.996Z,101802.78
2022-11-27T12:58:01.635Z,101799.34
2022-11-27T13:02:09.593Z,101795.81
2022-11-27T13:06:19.992Z,101785.47
2022-11-27T13:10:34.694Z,101789.81
2022-11-27T13:14:39.270Z,101788.00
2022-11-27T13:18:46.999Z,101795.78
2022-11-27T13:22:50.685Z,101787.19
2022-11-27T13:27:02.103Z,101786.34
2022-11-27T13:31:06.200Z,101779.56
2022-11-27T13:35:21.525Z,101780.34
2022-11-27T13:39:28.124Z,101783.75
2022-11-27T13:43:44.029Z,101784.53
2022-11-27T13:47:48.036Z,101776.00
2022-11-27T13:51:49.866Z,101774.38
2022-11-27T13:55:55.832Z,101773.50
2022-11-27T14:00:06.721Z,101777.94
2022-11-27T14:04:17.644Z,101782.25
2022-11-27T14:08:26.413Z,101778.81
2022-11-27T14:12:32.246Z,101778.78
2022-11-27T14:16:35.474Z,101778.78
2022-11-27T14:20:51.406Z,101779.69
2022-11-27T14:24:55.835Z,101769.31
2022-11-27T14:29:00.204Z,101772.72
2022-11-27T14:33:05.760Z,101763.31
2022-11-27T14:37:20.159Z,101757.34
2022-11-27T14:41:24.150Z,101760.88
2022-11-27T14:45:26.178Z,101760.88
2022-11-27T14:49:29.980Z,101762.72
2022-11-27T14:53:31.987Z,101757.66
2022-11-27T14:57:33.821Z,101758.53
2022-11-27T15:01:37.142Z,101756.06
2022-11-27T15:05:39.187Z,101755.28
2022-11-27T15:09:46.157Z,101750.16
2022-11-27T15:13:55.940Z,101747.66
2022-11-27T15:18:01.849Z,101741.66
2022-11-27T15:22:04.526Z,101745.13
2022-11-27T15:26:15.116Z,101748.59
2022-11-27T15:30:18.872Z,101746.91
2022-11-27T15:34:23.171Z,101749.50
2022-11-27T15:38:24.892Z,101750.38
2022-11-27T15:42:27.573Z,101750.38
2022-11-27T15:46:34.503Z,101754.66
2022-11-27T15:50:36.442Z,101755.47
2022-11-27T15:54:38.237Z,101758.03
2022-11-27T15:58:41.665Z,101762.31
2022-11-27T16:02:43.412Z,101754.50
2022-11-27T16:06:45.507Z,101751.88
2022-11-27T16:10:47.159Z,101751.03
2022-11-27T16:14:49.220Z,101757.13
2022-11-27T16:18:50.867Z,101751.06
2022-11-27T16:22:53.267Z,101751.03
2022-11-27T16:26:54.934Z,101749.25
2022-11-27T16:30:58.855Z,101743.25
2022-11-27T16:35:00.583Z,101738.00
2022-11-27T16:39:03.583Z,101744.06
2022-11-27T16:43:05.352Z,101738.88
2022-11-27T16:47:07.872Z,101737.16
2022-11-27T16:51:13.092Z,101733.66
2022-11-27T16:55:15.158Z,101733.72
2022-11-27T16:59:17.071Z,101730.25
2022-11-27T17:03:19.037Z,101723.44
2022-11-27T17:07:21.084Z,101721.72
2022-11-27T17:11:35.222Z,101723.47
2022-11-27T17:15:40.498Z,101719.97
2022-11-27T17:19:43.763Z,101725.19
2022-11-27T17:23:46.866Z,101722.63
2022-11-27T17:27:51.649Z,101722.63
2022-11-27T17:31:53.680Z,101717.41
2022-11-27T17:35:57.243Z,101720.03
2022-11-27T17:39:59.426Z,101706.22
2022-11-27T17:44:04.308Z,101705.38
2022-11-27T17:48:06.349Z,101702.81
2022-11-27T17:52:08.521Z,101701.94
2022-11-27T17:56:14.189Z,101700.25
2022-11-27T18:00:18.581Z,101705.41
2022-11-27T18:04:21.188Z,101707.13
2022-11-27T18:08:23.969Z,101707.13
2022-11-27T18:12:25.750Z,101699.34
2022-11-27T18:16:31.639Z,101695.91
2022-11-27T18:20:33.478Z,101688.94
2022-11-27T18:24:36.349Z,101690.69
2022-11-27T18:28:38.128Z,101682.91
2022-11-27T18:32:40.103Z,101682.06
2022-11-27T18:36:42.117Z,101682.03
2022-11-27T18:40:45.906Z,101675.97
2022-11-27T18:44:47.532Z,101675.13
2022-11-27T18:48:50.354Z,101681.13
2022-11-27T18:52:52.470Z,101680.25
2022-11-27T18:56:54.481Z,101678.50
2022-11-27T19:00:57.567Z,101686.31
2022-11-27T19:04:59.946Z,101682.81
2022-11-27T19:09:02.381Z,101688.00
2022-11-27T19:13:04.479Z,101679.44
2022-11-27T19:17:06.329Z,101694.97
2022-11-27T19:21:20.091Z,101681.97
2022-11-27T19:25:22.336Z,101682.81
2022-11-27T19:29:24.588Z,101687.09
2022-11-27T19:33:26.258Z,101676.72
2022-11-27T19:37:34.440Z,101675.84
2022-11-27T19:41:37.733Z,101677.56
2022-11-27T19:45:39.959Z,101668.91
2022-11-27T19:49:41.935Z,101676.78
2022-11-27T19:53:44.422Z,101680.16
2022-11-27T19:57:46.083Z,101677.59
2022-11-27T20:01:48.307Z,101671.56
2022-11-27T20:05:49.970Z,101674.22
2022-11-27T20:09:52.840Z,101673.28
2022-11-27T20:13:59.419Z,101668.09
2022-11-27T20:18:02.802Z,101667.25
2022-11-27T20:22:04.471Z,101666.41
2022-11-27T20:26:09.302Z,101667.22
2022-11-27T20:30:12.536Z,101669.84
2022-11-27T20:34:20.361Z,101665.53
2022-11-27T20:38:23.088Z,101671.56
2022-11-27T20:42:25.721Z,101672.38
2022-11-27T20:46:28.631Z,101657.69
2022-11-27T20:50:31.014Z,101663.75
2022-11-27T20:54:32.606Z,101663.81
2022-11-27T20:58:36.474Z,101664.66
2022-11-27T21:02:40.905Z,101671.56
2022-11-27T21:06:44.190Z,101663.00
2022-11-27T21:10:46.927Z,101669.97
2022-11-27T21:14:49.051Z,101680.31
2022-11-27T21:18:53.425Z,101681.16
2022-11-27T21:22:56.352Z,101687.19
2022-11-27T21:26:58.464Z,101669.91
2022-11-27T21:31:09.025Z,101669.03
2022-11-27T21:35:10.995Z,101678.47
2022-11-27T21:39:20.466Z,101674.19
2022-11-27T21:43:22.808Z,101663.78
2022-11-27T21:47:24.929Z,101667.28
2022-11-27T21:51:28.175Z,101665.47
2022-11-27T21:55:31.826Z,101661.22
2022-11-27T21:59:33.554Z,101663.81
2022-11-27T22:03:41.115Z,101669.91
2022-11-27T22:07:44.280Z,101667.31
2022-11-27T22:11:47.214Z,101662.91
2022-11-27T22:15:49.121Z,101659.53
2022-11-27T22:19:51.473Z,101656.94
2022-11-27T22:23:53.882Z,101659.47
2022-11-27T22:27:56.501Z,101651.69
2022-11-27T22:31:58.193Z,101655.13
2022-11-27T22:36:10.741Z,101645.69
2022-11-27T22:40:13.629Z,101645.66
2022-11-27T22:44:20.998Z,101639.59
2022-11-27T22:48:24.270Z,101642.25
2022-11-27T22:52:25.896Z,101637.97
2022-11-27T22:56:28.250Z,101636.22
2022-11-27T23:00:30.157Z,101636.19
2022-11-27T23:04:33.603Z,101628.44
2022-11-27T23:08:35.306Z,101633.66
2022-11-27T23:12:37.504Z,101638.81
2022-11-27T23:16:39.510Z,101638.88
2022-11-27T23:20:42.965Z,101641.41
2022-11-27T23:24:45.010Z,101642.31
2022-11-27T23:28:49.444Z,101633.72
2022-11-27T23:32:51.242Z,101638.03
2022-11-27T23:36:53.290Z,101640.66
2022-11-27T23:40:56.380Z,101636.34
2022-11-27T23:44:58.469Z,101627.69
2022-11-27T23:49:00.727Z,101630.22
2022-11-27T23:53:02.706Z,101620.75
2022-11-27T23:57:04.749Z,101623.28
